Time;durP1;ratioP1;P1;durP2;ratioP2;P2;SDS_P1;SDS_P2;PMS_P1;PMS_P2;Temp;Humidity;BMP_temperature;BMP_pressure;BME280_temperature;BME280_humidity;BME280_pressure;Samples;Min_cycle;Max_cycle;Signal;HPM_P1;HPM_P2
2021/10/06 00:01:20;;;;;;;9.43;5.43;;;;;;;;;;6223886;28;20049;-69
2021/10/06 00:04:22;;;;;;;7.53;4.75;;;;;;;;;;6237861;28;20042;-68
2021/10/06 00:07:24;;;;;;;8.10;4.70;;;;;;;;;;6225470;28;20056;-68
2021/10/06 00:10:27;;;;;;;12.32;4.72;;;;;;;;;;6227509;28;20038;-68
2021/10/06 00:13:28;;;;;;;10.85;5.43;;;;;;;;;;6231503;28;20103;-69
2021/10/06 00:16:30;;;;;;;9.32;5.63;;;;;;;;;;6221594;28;20168;-68
2021/10/06 00:19:32;;;;;;;8.25;4.93;;;;;;;;;;6233771;28;20503;-68
2021/10/06 00:22:33;;;;;;;7.03;4.38;;;;;;;;;;6225491;28;20048;-68
2021/10/06 00:25:36;;;;;;;6.00;4.30;;;;;;;;;;6226507;28;20114;-68
2021/10/06 00:28:38;;;;;;;11.95;4.60;;;;;;;;;;6237639;28;20056;-68
2021/10/06 00:31:39;;;;;;;9.23;4.47;;;;;;;;;;6220033;28;20091;-68
2021/10/06 00:34:41;;;;;;;7.32;4.25;;;;;;;;;;6232853;28;20041;-68
2021/10/06 00:37:43;;;;;;;6.68;4.43;;;;;;;;;;6221696;28;20091;-69
2021/10/06 00:40:46;;;;;;;6.85;4.30;;;;;;;;;;6222006;28;20049;-69
2021/10/06 00:43:47;;;;;;;7.57;4.32;;;;;;;;;;6238860;28;20396;-68
2021/10/06 00:46:49;;;;;;;7.70;4.55;;;;;;;;;;6219006;28;20124;-72
2021/10/06 00:49:51;;;;;;;8.18;4.45;;;;;;;;;;6233050;28;20041;-67
2021/10/06 00:52:53;;;;;;;12.15;5.03;;;;;;;;;;6225815;28;20050;-69
2021/10/06 00:55:56;;;;;;;6.60;4.25;;;;;;;;;;6225921;28;20034;-68
2021/10/06 00:58:57;;;;;;;6.15;4.03;;;;;;;;;;6236779;28;20152;-68
2021/10/06 01:01:59;;;;;;;8.07;4.20;;;;;;;;;;6214712;28;20033;-72
2021/10/06 01:05:01;;;;;;;7.78;4.38;;;;;;;;;;6227592;28;20053;-68
2021/10/06 01:08:05;;;;;;;6.43;3.90;;;;;;;;;;6224607;28;20129;-68
2021/10/06 01:11:07;;;;;;;;;;;;;;;;;;6226776;28;20467;-66
2021/10/06 01:14:09;;;;;;;6.53;4.30;;;;;;;;;;6235170;28;19920;-68
2021/10/06 01:17:11;;;;;;;7.55;4.05;;;;;;;;;;6215191;28;20053;-68
2021/10/06 01:20:13;;;;;;;5.95;4.30;;;;;;;;;;6223503;28;20047;-74
2021/10/06 01:23:16;;;;;;;6.47;3.53;;;;;;;;;;6231482;28;20768;-68
2021/10/06 01:26:19;;;;;;;;;;;;;;;;;;6227014;28;20108;-68
2021/10/06 01:29:21;;;;;;;6.20;4.40;;;;;;;;;;6233474;28;20300;-68
2021/10/06 01:32:22;;;;;;;7.53;4.22;;;;;;;;;;6217801;28;20098;-68
2021/10/06 01:35:24;;;;;;;6.93;4.38;;;;;;;;;;6219399;28;20450;-69
2021/10/06 01:38:27;;;;;;;6.38;3.65;;;;;;;;;;6231646;28;20049;-68
2021/10/06 01:41:30;;;;;;;6.22;4.07;;;;;;;;;;6225580;28;20049;-68
2021/10/06 01:44:32;;;;;;;8.68;4.05;;;;;;;;;;6234211;28;20052;-70
2021/10/06 01:47:33;;;;;;;10.15;3.70;;;;;;;;;;6218751;28;20230;-73
2021/10/06 01:50:37;;;;;;;7.15;4.32;;;;;;;;;;6222041;28;20055;-67
2021/10/06 01:53:41;;;;;;;7.38;4.63;;;;;;;;;;6234074;28;20049;-69
2021/10/06 01:56:42;;;;;;;8.30;4.20;;;;;;;;;;6226637;28;20084;-69
2021/10/06 01:59:45;;;;;;;8.88;4.40;;;;;;;;;;6236595;28;20041;-67
2021/10/06 02:02:47;;;;;;;7.53;4.55;;;;;;;;;;6215616;28;20443;-70
2021/10/06 02:05:49;;;;;;;6.55;4.53;;;;;;;;;;6220096;28;20041;-68
2021/10/06 02:08:52;;;;;;;7.47;4.65;;;;;;;;;;6235429;28;20489;-68
2021/10/06 02:11:53;;;;;;;6.57;4.27;;;;;;;;;;6223832;28;20095;-68
2021/10/06 02:14:55;;;;;;;8.18;4.50;;;;;;;;;;6233044;28;20056;-68
2021/10/06 02:17:56;;;;;;;6.40;4.50;;;;;;;;;;6217125;28;20041;-69
2021/10/06 02:20:58;;;;;;;7.50;4.60;;;;;;;;;;6220593;28;20075;-68
2021/10/06 02:24:01;;;;;;;6.55;4.70;;;;;;;;;;6232535;28;20045;-67
2021/10/06 02:27:03;;;;;;;8.13;4.67;;;;;;;;;;6222772;28;20551;-70
2021/10/06 02:30:06;;;;;;;8.63;5.50;;;;;;;;;;6234357;28;20037;-74
2021/10/06 02:33:07;;;;;;;8.40;5.28;;;;;;;;;;6220048;28;20050;-73
2021/10/06 02:36:09;;;;;;;9.30;5.38;;;;;;;;;;6221211;28;20049;-68
2021/10/06 02:39:12;;;;;;;6.93;5.13;;;;;;;;;;6233732;28;20037;-68
2021/10/06 02:42:14;;;;;;;8.93;5.45;;;;;;;;;;6223065;28;20053;-68
2021/10/06 02:45:17;;;;;;;10.88;5.47;;;;;;;;;;6223431;28;20167;-73
2021/10/06 02:48:21;;;;;;;7.72;5.10;;;;;;;;;;6224753;28;20213;-73
2021/10/06 02:51:23;;;;;;;6.93;5.35;;;;;;;;;;6222678;28;20045;-72
2021/10/06 02:54:26;;;;;;;9.57;5.60;;;;;;;;;;6230899;28;20103;-69
2021/10/06 02:57:28;;;;;;;7.68;6.30;;;;;;;;;;6224809;28;20049;-68
2021/10/06 03:00:30;;;;;;;7.97;6.05;;;;;;;;;;6223416;28;20988;-73
2021/10/06 03:03:32;;;;;;;9.75;6.03;;;;;;;;;;6228341;28;20042;-68
2021/10/06 03:06:33;;;;;;;9.07;6.10;;;;;;;;;;6226179;28;20042;-69
2021/10/06 03:09:36;;;;;;;7.55;5.88;;;;;;;;;;6237759;28;20136;-68
2021/10/06 03:12:38;;;;;;;8.05;5.85;;;;;;;;;;6227566;28;20107;-68
2021/10/06 03:15:39;;;;;;;8.23;6.15;;;;;;;;;;6226521;28;20060;-68
2021/10/06 03:18:41;;;;;;;9.57;6.78;;;;;;;;;;6233235;28;20057;-70
2021/10/06 03:21:42;;;;;;;9.50;7.95;;;;;;;;;;6227202;28;20662;-69
2021/10/06 03:24:45;;;;;;;16.45;7.55;;;;;;;;;;6238538;28;20191;-74
2021/10/06 03:27:47;;;;;;;9.20;7.03;;;;;;;;;;6230178;28;20047;-69
2021/10/06 03:30:49;;;;;;;12.27;7.72;;;;;;;;;;6226561;28;20114;-68
2021/10/06 03:33:50;;;;;;;9.95;7.50;;;;;;;;;;6228847;28;20051;-75
2021/10/06 03:36:52;;;;;;;11.57;8.50;;;;;;;;;;6228117;28;20166;-69
2021/10/06 03:39:55;;;;;;;10.23;7.95;;;;;;;;;;6233499;28;20122;-67
2021/10/06 03:42:57;;;;;;;11.65;8.25;;;;;;;;;;6230345;28;20046;-67
2021/10/06 03:45:58;;;;;;;10.00;8.18;;;;;;;;;;6226543;28;20045;-68
2021/10/06 03:49:00;;;;;;;10.40;8.55;;;;;;;;;;6238432;28;20143;-68
2021/10/06 03:52:01;;;;;;;11.75;8.80;;;;;;;;;;6231730;28;20107;-68
2021/10/06 03:55:06;;;;;;;11.77;8.80;;;;;;;;;;6232859;28;20037;-73
2021/10/06 03:58:07;;;;;;;18.75;12.00;;;;;;;;;;6231541;28;20046;-70
2021/10/06 04:01:09;;;;;;;23.17;14.82;;;;;;;;;;6223996;28;20208;-68
2021/10/06 04:04:11;;;;;;;25.23;16.88;;;;;;;;;;6236253;28;20420;-68
2021/10/06 04:07:12;;;;;;;25.13;18.70;;;;;;;;;;6226427;28;20454;-69
2021/10/06 04:10:15;;;;;;;27.80;21.30;;;;;;;;;;6233471;28;20050;-68
2021/10/06 04:13:17;;;;;;;28.55;22.27;;;;;;;;;;6235638;28;20484;-73
2021/10/06 04:16:18;;;;;;;27.30;18.10;;;;;;;;;;6223446;28;20195;-68
2021/10/06 04:19:20;;;;;;;25.52;17.20;;;;;;;;;;6235854;28;20050;-68
2021/10/06 04:22:21;;;;;;;26.30;18.42;;;;;;;;;;6224543;28;20137;-68
2021/10/06 04:25:24;;;;;;;26.02;18.92;;;;;;;;;;6229291;28;20050;-70
2021/10/06 04:28:26;;;;;;;23.08;18.30;;;;;;;;;;6236555;28;20135;-68
2021/10/06 04:31:27;;;;;;;25.13;17.67;;;;;;;;;;6221722;28;20049;-68
2021/10/06 04:34:29;;;;;;;23.10;18.13;;;;;;;;;;6230291;28;20065;-68
2021/10/06 04:37:31;;;;;;;23.23;17.98;;;;;;;;;;6224154;28;20054;-68
2021/10/06 04:40:34;;;;;;;23.83;17.67;;;;;;;;;;6226689;28;20378;-70
2021/10/06 04:43:35;;;;;;;25.73;17.97;;;;;;;;;;6232840;28;20389;-68
2021/10/06 04:46:37;;;;;;;25.92;18.17;;;;;;;;;;6220312;28;20626;-68
2021/10/06 04:49:39;;;;;;;23.67;17.50;;;;;;;;;;6232774;28;20560;-68
2021/10/06 04:52:40;;;;;;;26.35;17.40;;;;;;;;;;6225585;28;20191;-68
2021/10/06 04:55:43;;;;;;;28.55;18.90;;;;;;;;;;6223732;28;20162;-70
2021/10/06 04:58:45;;;;;;;24.57;18.27;;;;;;;;;;6236249;28;20104;-67
2021/10/06 05:01:46;;;;;;;26.38;18.85;;;;;;;;;;6217212;28;20137;-69
2021/10/06 05:04:48;;;;;;;23.02;18.45;;;;;;;;;;6233094;28;20075;-68
2021/10/06 05:07:49;;;;;;;26.20;18.77;;;;;;;;;;6222405;28;20045;-68
2021/10/06 05:10:52;;;;;;;24.08;19.00;;;;;;;;;;6231245;28;20492;-68
2021/10/06 05:13:54;;;;;;;28.05;18.55;;;;;;;;;;6236498;28;20535;-68
2021/10/06 05:16:55;;;;;;;23.70;18.83;;;;;;;;;;6223101;28;20492;-67
2021/10/06 05:19:57;;;;;;;23.40;18.27;;;;;;;;;;6233122;28;20544;-67
2021/10/06 05:22:59;;;;;;;27.13;19.25;;;;;;;;;;6225109;28;20049;-70
2021/10/06 05:26:02;;;;;;;26.70;18.95;;;;;;;;;;6227300;28;20110;-69
2021/10/06 05:29:04;;;;;;;27.02;20.80;;;;;;;;;;6234771;28;20041;-68
2021/10/06 05:32:05;;;;;;;25.30;20.35;;;;;;;;;;6217718;28;20705;-68
2021/10/06 05:35:08;;;;;;;24.33;18.30;;;;;;;;;;6229653;28;20051;-74
2021/10/06 05:38:10;;;;;;;20.27;14.82;;;;;;;;;;6229294;28;20126;-68
2021/10/06 05:41:12;;;;;;;15.60;10.82;;;;;;;;;;6225462;28;20544;-74
2021/10/06 05:44:14;;;;;;;13.10;8.80;;;;;;;;;;6235646;28;20485;-68
2021/10/06 05:47:16;;;;;;;9.63;5.68;;;;;;;;;;6220031;28;20136;-69
2021/10/06 05:50:17;;;;;;;6.72;4.47;;;;;;;;;;6225582;28;20504;-67
2021/10/06 05:53:19;;;;;;;6.55;3.55;;;;;;;;;;6233968;28;20164;-68
2021/10/06 05:56:22;;;;;;;6.13;2.88;;;;;;;;;;6225813;28;20049;-68
2021/10/06 05:59:23;;;;;;;10.02;3.00;;;;;;;;;;6232574;28;20119;-70
2021/10/06 06:02:25;;;;;;;4.15;1.80;;;;;;;;;;6220461;28;20083;-67
2021/10/06 06:05:26;;;;;;;2.45;1.58;;;;;;;;;;6223977;28;20118;-67
2021/10/06 06:08:28;;;;;;;3.90;1.17;;;;;;;;;;6235641;28;20393;-67
2021/10/06 06:11:31;;;;;;;2.97;1.20;;;;;;;;;;6229641;28;20138;-68
2021/10/06 06:14:33;;;;;;;1.63;0.82;;;;;;;;;;6235264;28;20071;-68
2021/10/06 06:17:37;;;;;;;2.03;0.73;;;;;;;;;;6218753;28;20128;-69
2021/10/06 06:20:38;;;;;;;2.38;0.80;;;;;;;;;;6228065;28;20073;-69
2021/10/06 06:23:40;;;;;;;2.55;1.00;;;;;;;;;;6233099;28;20064;-76
2021/10/06 06:26:43;;;;;;;2.42;0.90;;;;;;;;;;6231622;28;20052;-67
2021/10/06 06:29:45;;;;;;;3.58;1.00;;;;;;;;;;6236687;28;20037;-71
2021/10/06 06:32:46;;;;;;;2.30;1.30;;;;;;;;;;6216140;28;20114;-67
2021/10/06 06:35:48;;;;;;;3.17;1.50;;;;;;;;;;6221720;28;20037;-68
2021/10/06 06:38:50;;;;;;;2.75;1.40;;;;;;;;;;6230751;28;20061;-72
2021/10/06 06:41:53;;;;;;;5.65;1.55;;;;;;;;;;6228627;28;20554;-69
2021/10/06 06:44:55;;;;;;;2.95;1.20;;;;;;;;;;6235455;28;20052;-68
2021/10/06 06:47:56;;;;;;;5.30;1.40;;;;;;;;;;6225940;28;20143;-69
2021/10/06 06:50:59;;;;;;;3.47;1.58;;;;;;;;;;6223698;28;20111;-72
2021/10/06 06:54:01;;;;;;;4.78;1.38;;;;;;;;;;6233967;28;20050;-67
2021/10/06 06:57:04;;;;;;;1.65;0.93;;;;;;;;;;6233715;28;20053;-69
2021/10/06 07:00:06;;;;;;;2.00;1.10;;;;;;;;;;6232089;28;20573;-76
2021/10/06 07:03:08;;;;;;;3.63;1.38;;;;;;;;;;6223980;28;20125;-71
2021/10/06 07:06:10;;;;;;;1.60;0.80;;;;;;;;;;6223818;28;20168;-73
2021/10/06 07:09:11;;;;;;;1.20;0.70;;;;;;;;;;6234418;28;20045;-70
2021/10/06 07:12:14;;;;;;;2.45;0.68;;;;;;;;;;6232112;28;20042;-70
2021/10/06 07:15:16;;;;;;;1.27;0.60;;;;;;;;;;6235623;28;20053;-78
2021/10/06 07:18:18;;;;;;;1.15;0.70;;;;;;;;;;6233090;28;20049;-78
2021/10/06 07:21:20;;;;;;;2.60;0.65;;;;;;;;;;6231368;28;20141;-70
2021/10/06 07:24:21;;;;;;;0.80;0.60;;;;;;;;;;6238642;28;20186;-68
2021/10/06 07:27:24;;;;;;;2.65;0.80;;;;;;;;;;6226689;28;20092;-70
2021/10/06 07:30:26;;;;;;;1.80;0.80;;;;;;;;;;6225335;28;20041;-71
2021/10/06 07:33:27;;;;;;;1.27;0.82;;;;;;;;;;6227890;28;20068;-67
2021/10/06 07:36:29;;;;;;;1.10;0.77;;;;;;;;;;6223948;28;20057;-69
2021/10/06 07:39:30;;;;;;;2.08;0.70;;;;;;;;;;6229219;28;20077;-69
2021/10/06 07:42:34;;;;;;;0.90;0.70;;;;;;;;;;6223846;28;20071;-70
2021/10/06 07:45:36;;;;;;;1.83;0.70;;;;;;;;;;6227480;28;20098;-68
2021/10/06 07:48:37;;;;;;;2.13;0.77;;;;;;;;;;6233477;28;20095;-67
2021/10/06 07:51:39;;;;;;;1.20;0.70;;;;;;;;;;6225819;28;20049;-68
2021/10/06 07:54:41;;;;;;;1.58;0.70;;;;;;;;;;6237720;28;20053;-68
2021/10/06 07:57:43;;;;;;;1.35;0.77;;;;;;;;;;6222639;28;20118;-69
2021/10/06 08:00:45;;;;;;;1.00;0.77;;;;;;;;;;6216541;28;20120;-68
2021/10/06 08:03:47;;;;;;;1.33;0.70;;;;;;;;;;6217560;28;20049;-69
2021/10/06 08:06:48;;;;;;;1.88;1.05;;;;;;;;;;6220262;28;20059;-68
2021/10/06 08:09:50;;;;;;;2.63;0.73;;;;;;;;;;6232120;28;20037;-68
2021/10/06 08:12:53;;;;;;;5.40;1.08;;;;;;;;;;6222379;28;20045;-69
2021/10/06 08:15:54;;;;;;;2.50;1.27;;;;;;;;;;6217467;28;20041;-70
2021/10/06 08:18:56;;;;;;;2.97;1.00;;;;;;;;;;6226480;28;20139;-68
2021/10/06 08:21:58;;;;;;;3.30;0.95;;;;;;;;;;6221313;28;20140;-69
2021/10/06 08:24:59;;;;;;;3.13;0.82;;;;;;;;;;6229806;28;20102;-68
2021/10/06 08:28:02;;;;;;;5.45;0.80;;;;;;;;;;6221862;28;20133;-68
2021/10/06 08:31:04;;;;;;;3.08;0.90;;;;;;;;;;6215567;28;20046;-68
2021/10/06 08:34:06;;;;;;;2.80;1.20;;;;;;;;;;6225158;28;20076;-68
2021/10/06 08:37:07;;;;;;;2.03;0.95;;;;;;;;;;6220639;28;20051;-68
2021/10/06 08:40:11;;;;;;;2.63;1.55;;;;;;;;;;6226193;28;20052;-73
2021/10/06 08:43:14;;;;;;;1.85;0.98;;;;;;;;;;6225804;28;20552;-70
2021/10/06 08:46:15;;;;;;;2.40;1.23;;;;;;;;;;6215933;28;20091;-68
2021/10/06 08:49:17;;;;;;;2.00;1.10;;;;;;;;;;6226772;28;20041;-68
2021/10/06 08:52:19;;;;;;;5.65;1.60;;;;;;;;;;6215623;28;20587;-71
2021/10/06 08:55:27;;;;;;;3.15;1.30;;;;;;;;;;6222252;28;20145;-73
2021/10/06 08:58:30;;;;;;;1.88;1.10;;;;;;;;;;6230211;28;20041;-69
2021/10/06 09:01:32;;;;;;;3.13;1.27;;;;;;;;;;6213460;28;20417;-71
2021/10/06 09:04:33;;;;;;;3.90;1.15;;;;;;;;;;6228382;28;20052;-70
2021/10/06 09:07:53;;;;;;;5.30;1.13;;;;;;;;;;6214448;28;20055;-71
2021/10/06 09:10:55;;;;;;;3.65;1.10;;;;;;;;;;6222203;28;20057;-71
2021/10/06 09:13:58;;;;;;;3.97;1.02;;;;;;;;;;6228550;28;20057;-68
2021/10/06 09:17:07;;;;;;;1.90;0.82;;;;;;;;;;6209057;28;20049;-69
2021/10/06 09:20:10;;;;;;;1.83;1.17;;;;;;;;;;6224716;28;20041;-73
2021/10/06 09:23:15;;;;;;;1.52;1.08;;;;;;;;;;6224640;28;20045;-68
2021/10/06 09:26:16;;;;;;;2.28;1.65;;;;;;;;;;6220061;28;20147;-69
2021/10/06 09:29:23;;;;;;;3.88;1.20;;;;;;;;;;6228144;28;20136;-69
2021/10/06 09:32:27;;;;;;;1.63;1.00;;;;;;;;;;6212798;28;20191;-69
2021/10/06 09:35:28;;;;;;;3.15;1.35;;;;;;;;;;6216897;28;20882;-69
2021/10/06 09:38:39;;;;;;;3.72;1.55;;;;;;;;;;6225756;28;20094;-70
2021/10/06 09:41:43;;;;;;;2.03;1.30;;;;;;;;;;6220889;28;20449;-68
2021/10/06 09:44:54;;;;;;;3.30;1.77;;;;;;;;;;6229804;28;20045;-71
2021/10/06 09:48:10;;;;;;;3.65;1.30;;;;;;;;;;6212973;28;20053;-68
2021/10/06 09:51:11;;;;;;;2.67;1.35;;;;;;;;;;6216203;28;20547;-69
2021/10/06 09:54:13;;;;;;;2.58;1.20;;;;;;;;;;6230313;28;20135;-69
2021/10/06 09:57:23;;;;;;;2.10;1.33;;;;;;;;;;6219215;28;20053;-71
2021/10/06 10:00:26;;;;;;;2.55;1.20;;;;;;;;;;6214885;28;20983;-72
2021/10/06 10:03:28;;;;;;;2.60;1.23;;;;;;;;;;6221571;28;20053;-69
2021/10/06 10:06:30;;;;;;;2.42;1.17;;;;;;;;;;6220095;28;20120;-69
2021/10/06 10:09:32;;;;;;;2.63;1.42;;;;;;;;;;6225456;28;20095;-73
2021/10/06 10:12:34;;;;;;;2.78;1.40;;;;;;;;;;6221457;28;20152;-71
2021/10/06 10:15:37;;;;;;;1.80;1.20;;;;;;;;;;6219137;28;20380;-70
2021/10/06 10:18:38;;;;;;;4.03;1.33;;;;;;;;;;6223531;28;20684;-73
2021/10/06 10:21:42;;;;;;;3.80;1.30;;;;;;;;;;6224172;28;20443;-69
2021/10/06 10:24:45;;;;;;;2.22;1.13;;;;;;;;;;6241695;28;20042;-72
2021/10/06 10:27:59;;;;;;;;;;;;;;;;;;6231685;28;20060;-67
2021/10/06 10:31:03;;;;;;;15.60;10.40;;;;;;;;;;6230086;28;19921;-65
2021/10/06 10:34:05;;;;;;;4.88;3.17;;;;;;;;;;6238896;28;20050;-70
2021/10/06 10:37:06;;;;;;;2.88;2.05;;;;;;;;;;6232891;28;20057;-69
2021/10/06 10:40:36;;;;;;;4.00;1.98;;;;;;;;;;6231343;28;20131;-70
2021/10/06 10:43:55;;;;;;;2.15;1.25;;;;;;;;;;6238727;28;20501;-69
2021/10/06 10:46:57;;;;;;;2.85;1.02;;;;;;;;;;6227540;28;20132;-69
2021/10/06 10:49:58;;;;;;;2.25;0.75;;;;;;;;;;6240019;28;20057;-69
2021/10/06 10:53:01;;;;;;;1.20;0.50;;;;;;;;;;6229922;28;20128;-70
2021/10/06 10:56:04;;;;;;;1.70;0.40;;;;;;;;;;6234772;28;20072;-70
2021/10/06 10:59:07;;;;;;;0.70;0.30;;;;;;;;;;6243499;28;20042;-70
2021/10/06 11:02:15;;;;;;;3.20;0.43;;;;;;;;;;6223840;28;20106;-69
2021/10/06 11:05:18;;;;;;;0.50;0.32;;;;;;;;;;6231486;28;20661;-69
2021/10/06 11:08:27;;;;;;;0.38;0.28;;;;;;;;;;6239046;28;20052;-69
2021/10/06 11:11:31;;;;;;;1.27;0.20;;;;;;;;;;6234092;28;20049;-70
2021/10/06 11:14:33;;;;;;;1.50;0.25;;;;;;;;;;6246827;28;20471;-69
2021/10/06 11:17:35;;;;;;;1.90;0.30;;;;;;;;;;6227114;28;20484;-70
2021/10/06 11:20:44;;;;;;;1.52;0.40;;;;;;;;;;6223507;28;20053;-70
2021/10/06 11:23:47;;;;;;;0.55;0.30;;;;;;;;;;6234924;28;20520;-68
2021/10/06 11:26:58;;;;;;;2.40;0.30;;;;;;;;;;6227634;28;20061;-69
2021/10/06 11:29:59;;;;;;;2.83;1.45;;;;;;;;;;6237095;28;20140;-69
2021/10/06 11:33:01;;;;;;;1.30;0.40;;;;;;;;;;6223891;28;20038;-69
2021/10/06 11:36:10;;;;;;;2.33;0.55;;;;;;;;;;6228131;28;20045;-68
2021/10/06 11:39:12;;;;;;;0.32;0.28;;;;;;;;;;6235705;28;20057;-69
2021/10/06 11:42:16;;;;;;;0.60;0.40;;;;;;;;;;6228048;28;20504;-70
2021/10/06 11:45:19;;;;;;;0.70;0.30;;;;;;;;;;6232854;28;20132;-69
2021/10/06 11:48:22;;;;;;;0.68;0.30;;;;;;;;;;6237579;28;20057;-68
2021/10/06 11:51:41;;;;;;;1.02;0.20;;;;;;;;;;6230909;28;20130;-69
2021/10/06 11:54:43;;;;;;;1.45;0.40;;;;;;;;;;6240917;28;20115;-69
2021/10/06 11:57:46;;;;;;;1.17;0.45;;;;;;;;;;6227326;28;20053;-68
2021/10/06 12:01:03;;;;;;;1.03;0.40;;;;;;;;;;6222102;28;20056;-70
2021/10/06 12:04:09;;;;;;;1.83;0.40;;;;;;;;;;6236120;28;20102;-70
2021/10/06 12:07:13;;;;;;;1.13;0.50;;;;;;;;;;6223436;28;20403;-71
2021/10/06 12:10:14;;;;;;;0.60;0.30;;;;;;;;;;6227812;28;20087;-71
2021/10/06 12:13:37;;;;;;;1.05;0.28;;;;;;;;;;6233105;28;20081;-71
2021/10/06 12:16:38;;;;;;;0.70;0.30;;;;;;;;;;6217913;28;20072;-69
2021/10/06 12:19:40;;;;;;;0.68;0.40;;;;;;;;;;6233286;28;20071;-68
2021/10/06 12:22:43;;;;;;;1.05;0.55;;;;;;;;;;6219969;28;20056;-69
2021/10/06 12:25:45;;;;;;;1.75;0.50;;;;;;;;;;6225522;28;20099;-70
2021/10/06 12:28:57;;;;;;;4.30;0.60;;;;;;;;;;6233531;28;20046;-68
2021/10/06 12:32:16;;;;;;;0.90;0.40;;;;;;;;;;6216384;28;20107;-70
2021/10/06 12:35:20;;;;;;;1.10;0.38;;;;;;;;;;6221663;28;20145;-69
2021/10/06 12:38:21;;;;;;;1.48;0.50;;;;;;;;;;6233033;28;20608;-69
2021/10/06 12:41:25;;;;;;;2.20;0.47;;;;;;;;;;6223774;28;20053;-70
2021/10/06 12:44:32;;;;;;;0.52;0.52;;;;;;;;;;6230667;28;20077;-68
2021/10/06 12:47:33;;;;;;;0.90;0.30;;;;;;;;;;6217431;28;21243;-70
2021/10/06 12:50:35;;;;;;;0.75;0.38;;;;;;;;;;6222139;28;20124;-68
2021/10/06 12:53:50;;;;;;;3.00;0.45;;;;;;;;;;6233735;28;20120;-68
2021/10/06 12:56:54;;;;;;;2.70;0.77;;;;;;;;;;6203093;28;20049;-68
2021/10/06 12:59:58;;;;;;;2.13;0.50;;;;;;;;;;6235275;28;20410;-68
2021/10/06 13:02:59;;;;;;;1.67;0.20;;;;;;;;;;6216373;28;20060;-69
2021/10/06 13:06:01;;;;;;;1.33;0.47;;;;;;;;;;6218052;28;20584;-72
2021/10/06 13:09:05;;;;;;;1.08;0.47;;;;;;;;;;6233768;28;20083;-67
2021/10/06 13:12:11;;;;;;;0.93;0.30;;;;;;;;;;6223847;28;20134;-70
2021/10/06 13:15:19;;;;;;;1.50;0.50;;;;;;;;;;6223735;28;20610;-71
2021/10/06 13:18:21;;;;;;;1.23;0.50;;;;;;;;;;6229561;28;20056;-66
2021/10/06 13:21:23;;;;;;;1.73;0.52;;;;;;;;;;6211788;28;20049;-68
2021/10/06 13:24:25;;;;;;;0.65;0.50;;;;;;;;;;6234821;28;20049;-67
2021/10/06 13:27:26;;;;;;;0.77;0.40;;;;;;;;;;6221908;28;20612;-68
2021/10/06 13:30:34;;;;;;;1.08;0.60;;;;;;;;;;6223385;28;20199;-68
2021/10/06 13:33:36;;;;;;;1.58;0.55;;;;;;;;;;6227950;28;20730;-66
2021/10/06 13:36:37;;;;;;;2.25;0.32;;;;;;;;;;6220480;28;20053;-70
2021/10/06 13:39:39;;;;;;;3.35;0.65;;;;;;;;;;6231880;28;20049;-68
2021/10/06 13:42:40;;;;;;;3.00;0.50;;;;;;;;;;6221626;28;20100;-70
2021/10/06 13:45:43;;;;;;;1.35;0.63;;;;;;;;;;6218083;28;20069;-72
2021/10/06 13:48:47;;;;;;;0.52;0.38;;;;;;;;;;6229402;28;20049;-72
2021/10/06 13:51:49;;;;;;;2.17;0.50;;;;;;;;;;6220736;28;20045;-71
2021/10/06 13:54:50;;;;;;;1.05;0.40;;;;;;;;;;6233429;28;20045;-71
2021/10/06 13:57:53;;;;;;;0.90;0.30;;;;;;;;;;6222629;28;20045;-69
2021/10/06 14:00:56;;;;;;;1.25;0.50;;;;;;;;;;6220949;28;20477;-69
2021/10/06 14:03:58;;;;;;;0.73;0.40;;;;;;;;;;6229352;28;20124;-69
2021/10/06 14:06:59;;;;;;;0.50;0.30;;;;;;;;;;6223478;28;20063;-70
2021/10/06 14:10:01;;;;;;;0.73;0.38;;;;;;;;;;6228410;28;20415;-68
2021/10/06 14:13:02;;;;;;;1.20;0.50;;;;;;;;;;6224699;28;20140;-71
2021/10/06 14:16:06;;;;;;;1.13;0.43;;;;;;;;;;6219617;28;20496;-68
2021/10/06 14:19:07;;;;;;;0.85;0.50;;;;;;;;;;6230940;28;20493;-68
2021/10/06 14:22:10;;;;;;;2.55;0.50;;;;;;;;;;6220510;28;20050;-70
2021/10/06 14:25:12;;;;;;;1.45;0.70;;;;;;;;;;6224395;28;20046;-73
2021/10/06 14:28:13;;;;;;;2.28;0.70;;;;;;;;;;6232577;28;20131;-71
2021/10/06 14:31:16;;;;;;;3.25;0.50;;;;;;;;;;6218056;28;20158;-73
2021/10/06 14:34:18;;;;;;;2.33;0.68;;;;;;;;;;6228572;28;20099;-70
2021/10/06 14:37:20;;;;;;;2.40;0.70;;;;;;;;;;6220981;28;20088;-71
2021/10/06 14:40:21;;;;;;;1.27;0.65;;;;;;;;;;6223320;28;20124;-73
2021/10/06 14:43:23;;;;;;;1.20;0.38;;;;;;;;;;6233404;28;20049;-70
2021/10/06 14:46:26;;;;;;;3.03;0.60;;;;;;;;;;6216917;28;20186;-70
2021/10/06 14:49:27;;;;;;;1.33;0.60;;;;;;;;;;6225566;28;20199;-71
2021/10/06 14:52:31;;;;;;;1.55;0.75;;;;;;;;;;6218213;28;20417;-70
2021/10/06 14:55:33;;;;;;;1.35;0.40;;;;;;;;;;6219638;28;20060;-70
2021/10/06 14:58:34;;;;;;;0.73;0.40;;;;;;;;;;6230679;28;20469;-71
2021/10/06 15:01:38;;;;;;;0.50;0.40;;;;;;;;;;6219593;28;20053;-70
2021/10/06 15:04:39;;;;;;;0.98;0.52;;;;;;;;;;6233060;28;20508;-70
2021/10/06 15:07:42;;;;;;;1.40;0.40;;;;;;;;;;6225322;28;20093;-69
2021/10/06 15:10:44;;;;;;;1.33;0.55;;;;;;;;;;6225715;28;20045;-70
2021/10/06 15:13:45;;;;;;;3.67;0.52;;;;;;;;;;6239229;28;20042;-71
2021/10/06 15:16:49;;;;;;;0.77;0.50;;;;;;;;;;6219941;28;20158;-70
2021/10/06 15:19:50;;;;;;;1.83;0.70;;;;;;;;;;6233250;28;20195;-70
2021/10/06 15:22:52;;;;;;;2.80;1.05;;;;;;;;;;6223013;28;20042;-70
2021/10/06 15:25:53;;;;;;;1.42;0.90;;;;;;;;;;6225353;28;21141;-70
2021/10/06 15:28:55;;;;;;;1.10;0.60;;;;;;;;;;6238763;28;20038;-70
2021/10/06 15:32:00;;;;;;;1.05;0.70;;;;;;;;;;6219146;28;21740;-71
2021/10/06 15:35:02;;;;;;;0.90;0.50;;;;;;;;;;6234187;28;20107;-70
2021/10/06 15:38:03;;;;;;;0.65;0.30;;;;;;;;;;6224393;28;20102;-72
2021/10/06 15:41:05;;;;;;;2.78;0.63;;;;;;;;;;6222257;28;20077;-70
2021/10/06 15:44:07;;;;;;;1.65;0.60;;;;;;;;;;6241419;28;20059;-70
2021/10/06 15:47:10;;;;;;;1.00;0.65;;;;;;;;;;6227213;28;20451;-69
2021/10/06 15:50:15;;;;;;;0.68;0.40;;;;;;;;;;6230086;28;20037;-73
2021/10/06 15:53:16;;;;;;;1.65;0.60;;;;;;;;;;6223482;28;20052;-72
2021/10/06 15:56:18;;;;;;;2.17;0.70;;;;;;;;;;6229380;28;20049;-70
2021/10/06 15:59:19;;;;;;;1.23;0.70;;;;;;;;;;6238921;28;20046;-70
2021/10/06 16:02:23;;;;;;;1.13;0.60;;;;;;;;;;6222379;28;20038;-70
2021/10/06 16:05:24;;;;;;;;;;;;;;;;;;6227913;28;20067;-70
2021/10/06 16:08:25;;;;;;;3.00;0.65;;;;;;;;;;6233979;28;19921;-69
2021/10/06 16:11:27;;;;;;;0.98;0.52;;;;;;;;;;6224372;28;20061;-70
2021/10/06 16:14:28;;;;;;;1.80;0.50;;;;;;;;;;6241799;28;20128;-69
2021/10/06 16:17:31;;;;;;;1.83;0.80;;;;;;;;;;6219205;28;20045;-70
2021/10/06 16:20:33;;;;;;;1.77;0.80;;;;;;;;;;6223432;28;20045;-70
2021/10/06 16:23:35;;;;;;;3.85;1.10;;;;;;;;;;6239101;28;20710;-69
2021/10/06 16:26:37;;;;;;;1.92;0.90;;;;;;;;;;6227964;28;20474;-71
2021/10/06 16:29:38;;;;;;;1.30;0.68;;;;;;;;;;6236412;28;20077;-70
2021/10/06 16:32:42;;;;;;;0.70;0.55;;;;;;;;;;6216706;28;20076;-70
2021/10/06 16:35:44;;;;;;;1.60;0.63;;;;;;;;;;6222633;28;20057;-69
2021/10/06 16:38:48;;;;;;;1.33;0.80;;;;;;;;;;6235020;28;20142;-70
2021/10/06 16:41:50;;;;;;;2.15;0.50;;;;;;;;;;6226675;28;20417;-70
2021/10/06 16:44:51;;;;;;;3.20;0.60;;;;;;;;;;6240771;28;20140;-69
2021/10/06 16:47:54;;;;;;;2.00;0.70;;;;;;;;;;6221570;28;20136;-72
2021/10/06 16:50:57;;;;;;;7.30;5.70;;;;;;;;;;6224028;28;20111;-69
2021/10/06 16:53:59;;;;;;;10.82;6.50;;;;;;;;;;6232614;28;20506;-74
2021/10/06 16:57:01;;;;;;;4.43;1.73;;;;;;;;;;6225620;28;20191;-70
2021/10/06 17:00:04;;;;;;;2.90;1.20;;;;;;;;;;6236935;28;20373;-73
2021/10/06 17:03:07;;;;;;;4.65;0.55;;;;;;;;;;6219059;28;20049;-69
2021/10/06 17:06:09;;;;;;;0.50;0.40;;;;;;;;;;6226787;28;20059;-72
2021/10/06 17:09:10;;;;;;;2.45;1.45;;;;;;;;;;6236817;28;20142;-69
2021/10/06 17:12:12;;;;;;;1.20;0.63;;;;;;;;;;6230864;28;20045;-70
2021/10/06 17:15:14;;;;;;;2.42;1.00;;;;;;;;;;6231912;28;20041;-73
2021/10/06 17:18:17;;;;;;;1.63;0.70;;;;;;;;;;6231299;28;20049;-69
2021/10/06 17:21:18;;;;;;;2.73;0.70;;;;;;;;;;6228153;28;20485;-70
2021/10/06 17:24:21;;;;;;;1.98;0.73;;;;;;;;;;6241149;28;20474;-70
2021/10/06 17:27:22;;;;;;;1.38;1.00;;;;;;;;;;6227053;28;20417;-69
2021/10/06 17:30:24;;;;;;;2.10;0.88;;;;;;;;;;6231093;28;20049;-70
2021/10/06 17:33:27;;;;;;;2.60;0.80;;;;;;;;;;6235141;28;20187;-72
2021/10/06 17:36:29;;;;;;;1.83;0.73;;;;;;;;;;6247198;28;20519;-70
2021/10/06 17:39:31;;;;;;;5.10;0.90;;;;;;;;;;6234821;28;20057;-70
2021/10/06 17:42:32;;;;;;;3.17;0.70;;;;;;;;;;6224465;28;20133;-69
2021/10/06 17:45:34;;;;;;;1.15;0.47;;;;;;;;;;6225565;28;20098;-70
2021/10/06 17:48:37;;;;;;;2.15;0.70;;;;;;;;;;6237177;28;20127;-69
2021/10/06 17:51:39;;;;;;;1.45;0.60;;;;;;;;;;6224481;28;20068;-70
2021/10/06 17:54:41;;;;;;;1.45;0.73;;;;;;;;;;6242797;28;20087;-70
2021/10/06 17:57:43;;;;;;;1.10;0.70;;;;;;;;;;6218674;28;20053;-69
2021/10/06 18:00:45;;;;;;;2.92;0.55;;;;;;;;;;6227891;28;20144;-69
2021/10/06 18:03:48;;;;;;;1.77;0.60;;;;;;;;;;6233992;28;20155;-69
2021/10/06 18:06:50;;;;;;;1.10;0.63;;;;;;;;;;6223328;28;20079;-69
2021/10/06 18:09:51;;;;;;;2.20;0.70;;;;;;;;;;6235663;28;20046;-71
2021/10/06 18:12:53;;;;;;;0.98;0.60;;;;;;;;;;6230311;28;20147;-71